createdAt,value
2022-09-30T00:01:44.495Z,69853.19
2022-09-30T00:04:18.495Z,69801.69
2022-09-30T00:06:46.618Z,69831.53
2022-09-30T00:09:14.559Z,69828.31
2022-09-30T00:11:42.981Z,69819.84
2022-09-30T00:14:21.800Z,69842.41
2022-09-30T00:16:50.293Z,69789.72
2022-09-30T00:19:17.801Z,69821.34
2022-09-30T00:21:45.419Z,69790.31
2022-09-30T00:24:12.980Z,69836.28
2022-09-30T00:26:40.455Z,69831.59
2022-09-30T00:29:09.137Z,69795.88
2022-09-30T00:31:36.715Z,69793.56
2022-09-30T00:34:08.190Z,69802.94
2022-09-30T00:36:46.443Z,69762.88
2022-09-30T00:39:17.547Z,69780.72
2022-09-30T00:41:47.116Z,69808.81
2022-09-30T00:44:47.913Z,69773.16
2022-09-30T00:47:24.192Z,69787.78
2022-09-30T00:49:53.054Z,69801.25
2022-09-30T00:52:20.624Z,69766.09
2022-09-30T00:54:48.118Z,69805.00
2022-09-30T00:57:15.653Z,69815.53
2022-09-30T00:59:48.249Z,69811.16
2022-09-30T01:02:15.984Z,69753.25
2022-09-30T01:04:44.825Z,69801.22
2022-09-30T01:07:13.167Z,69769.31
2022-09-30T01:09:43.068Z,69802.38
2022-09-30T01:12:15.524Z,69774.00
2022-09-30T01:14:45.441Z,69763.19
2022-09-30T01:17:56.348Z,69794.19
2022-09-30T01:20:49.129Z,69806.16
2022-09-30T01:23:35.565Z,69780.44
2022-09-30T01:26:24.552Z,69770.25
2022-09-30T01:29:00.728Z,69767.31
2022-09-30T01:31:43.910Z,69770.28
2022-09-30T01:34:14.466Z,69748.34
2022-09-30T01:36:44.880Z,69748.91
2022-09-30T01:39:36.925Z,69769.41
2022-09-30T01:42:13.752Z,69797.19
2022-09-30T01:44:55.565Z,69783.72
2022-09-30T01:47:30.649Z,69798.31
2022-09-30T01:50:08.572Z,69822.00
2022-09-30T01:52:49.311Z,69773.84
2022-09-30T01:55:40.916Z,69744.00
2022-09-30T01:58:44.933Z,69749.28
2022-09-30T02:01:24.934Z,69763.31
2022-09-30T02:03:57.386Z,69783.75
2022-09-30T02:06:30.997Z,69767.66
2022-09-30T02:09:06.055Z,69811.22
2022-09-30T02:11:36.525Z,69775.22
2022-09-30T02:14:11.313Z,69774.34
2022-09-30T02:16:43.509Z,69756.25
2022-09-30T02:19:37.184Z,69750.66
2022-09-30T02:22:20.355Z,69774.97
2022-09-30T02:24:52.981Z,69750.41
2022-09-30T02:27:26.038Z,69747.19
2022-09-30T02:29:57.998Z,69770.88
2022-09-30T02:32:35.788Z,69767.94
2022-09-30T02:35:11.730Z,69804.19
2022-09-30T02:37:43.808Z,69785.47
2022-09-30T02:40:16.675Z,69757.06
2022-09-30T02:42:46.122Z,69802.41
2022-09-30T02:45:18.810Z,69776.63
2022-09-30T02:48:10.661Z,69791.00
2022-09-30T02:51:04.038Z,69784.88
2022-09-30T02:54:02.913Z,69764.44
2022-09-30T02:57:19.393Z,69783.19
2022-09-30T02:59:53.015Z,69716.25
2022-09-30T03:02:21.534Z,69748.69
2022-09-30T03:04:51.064Z,69771.50
2022-09-30T03:07:18.595Z,69747.53
2022-09-30T03:09:45.636Z,69747.25
2022-09-30T03:12:52.887Z,69736.13
2022-09-30T03:15:45.567Z,69765.66
2022-09-30T03:18:36.254Z,69731.44
2022-09-30T03:21:35.699Z,69739.63
2022-09-30T03:24:40.897Z,69782.59
2022-09-30T03:27:10.557Z,69740.47
2022-09-30T03:30:07.811Z,69785.53
2022-09-30T03:33:20.967Z,69777.94
2022-09-30T03:36:16.447Z,69794.88
2022-09-30T03:39:03.662Z,69777.91
2022-09-30T03:41:58.307Z,69788.97
2022-09-30T03:44:50.210Z,69797.75
2022-09-30T03:47:22.521Z,69795.13
2022-09-30T03:50:00.913Z,69815.28
2022-09-30T03:52:32.181Z,69785.19
2022-09-30T03:55:04.404Z,69772.03
2022-09-30T03:57:31.877Z,69792.81
2022-09-30T04:00:00.437Z,69767.69
2022-09-30T04:02:28.269Z,69801.03
2022-09-30T04:04:55.507Z,69775.53
2022-09-30T04:07:22.562Z,69802.13
2022-09-30T04:09:49.540Z,69803.31
2022-09-30T04:12:16.797Z,69746.63
2022-09-30T04:14:43.806Z,69777.63
2022-09-30T04:17:10.803Z,69784.31
2022-09-30T04:19:39.918Z,69785.50
2022-09-30T04:22:10.374Z,69766.19
2022-09-30T04:24:39.247Z,69767.31
2022-09-30T04:27:06.248Z,69765.03
2022-09-30T04:29:33.213Z,69787.28
2022-09-30T04:32:00.345Z,69785.25
2022-09-30T04:34:27.324Z,69772.09
2022-09-30T04:36:54.345Z,69777.94
2022-09-30T04:39:21.516Z,69759.84
2022-09-30T04:41:48.624Z,69775.63
2022-09-30T04:44:15.645Z,69741.72
2022-09-30T04:46:43.893Z,69688.69
2022-09-30T04:49:11.253Z,69749.66
2022-09-30T04:51:39.369Z,69700.84
2022-09-30T04:54:06.690Z,69737.06
2022-09-30T04:56:34.108Z,69711.38
2022-09-30T04:59:01.577Z,69716.38
2022-09-30T05:01:29.056Z,69699.13
2022-09-30T05:03:56.396Z,69759.31
2022-09-30T05:06:23.804Z,69702.59
2022-09-30T05:08:51.237Z,69745.63
2022-09-30T05:11:21.425Z,69733.06
2022-09-30T05:13:50.924Z,69697.44
2022-09-30T05:16:19.343Z,69702.41
2022-09-30T05:18:47.287Z,69687.22
2022-09-30T05:21:18.059Z,69718.19
2022-09-30T05:23:45.573Z,69693.09
2022-09-30T05:26:13.191Z,69651.03
2022-09-30T05:28:41.849Z,69702.75
2022-09-30T05:31:09.500Z,69695.75
2022-09-30T05:33:37.153Z,69702.19
2022-09-30T05:36:08.321Z,69666.84
2022-09-30T05:38:36.251Z,69653.38
2022-09-30T05:41:08.543Z,69686.09
2022-09-30T05:43:37.531Z,69704.50
2022-09-30T05:46:05.033Z,69719.09
2022-09-30T05:48:32.666Z,69728.09
2022-09-30T05:51:01.757Z,69703.25
2022-09-30T05:53:32.034Z,69731.56
2022-09-30T05:56:00.322Z,69747.06
2022-09-30T05:58:27.899Z,69785.00
2022-09-30T06:00:55.469Z,69762.78
2022-09-30T06:03:23.177Z,69771.22
2022-09-30T06:05:57.875Z,69782.03
2022-09-30T06:08:25.304Z,69778.50
2022-09-30T06:10:52.768Z,69770.84
2022-09-30T06:13:24.070Z,69779.03
2022-09-30T06:15:59.090Z,69781.66
2022-09-30T06:18:27.643Z,69758.22
2022-09-30T06:20:59.562Z,69801.81
2022-09-30T06:23:27.344Z,69777.81
2022-09-30T06:25:55.766Z,69785.38
2022-09-30T06:28:23.811Z,69773.09
2022-09-30T06:30:51.286Z,69763.66
2022-09-30T06:33:18.847Z,69820.38
2022-09-30T06:35:47.600Z,69832.38
2022-09-30T06:38:15.887Z,69837.88
2022-09-30T06:40:44.606Z,69875.34
2022-09-30T06:43:12.447Z,69851.84
2022-09-30T06:45:40.459Z,69836.03
2022-09-30T06:48:09.717Z,69880.47
2022-09-30T06:50:39.092Z,69906.78
2022-09-30T06:53:08.300Z,69920.19
2022-09-30T06:55:39.139Z,69897.63
2022-09-30T06:58:14.786Z,69923.06
2022-09-30T07:00:42.174Z,69936.47
2022-09-30T07:03:21.916Z,69959.25
2022-09-30T07:05:57.334Z,69964.44
2022-09-30T07:08:25.869Z,70024.81
2022-09-30T07:10:53.481Z,70034.16
2022-09-30T07:13:20.834Z,70014.13
2022-09-30T07:15:48.291Z,70051.03
2022-09-30T07:18:20.498Z,70052.47
2022-09-30T07:20:55.845Z,70030.19
2022-09-30T07:23:27.071Z,70068.56
2022-09-30T07:25:57.170Z,70067.34
2022-09-30T07:28:28.543Z,70087.00
2022-09-30T07:31:19.924Z,70078.44
2022-09-30T07:33:47.727Z,70081.94
2022-09-30T07:36:18.577Z,70086.00
2022-09-30T07:38:51.438Z,70121.50
2022-09-30T07:41:29.047Z,70115.31
2022-09-30T07:43:58.780Z,70103.78
2022-09-30T07:46:34.952Z,70170.94
2022-09-30T07:49:05.478Z,70128.69
2022-09-30T07:51:38.889Z,70136.28
2022-09-30T07:54:07.733Z,70180.28
2022-09-30T07:56:58.133Z,70179.16
2022-09-30T07:59:27.433Z,70145.97
2022-09-30T08:01:55.662Z,70160.94
2022-09-30T08:04:24.986Z,70207.31
2022-09-30T08:06:57.204Z,70168.50
2022-09-30T08:09:27.122Z,70186.94
2022-09-30T08:11:56.434Z,70197.13
2022-09-30T08:14:26.644Z,70215.03
2022-09-30T08:16:56.789Z,70207.59
2022-09-30T08:19:25.701Z,70285.41
2022-09-30T08:21:54.308Z,70272.66
2022-09-30T08:24:23.018Z,70306.09
2022-09-30T08:26:50.741Z,70320.69
2022-09-30T08:29:20.521Z,70363.59
2022-09-30T08:31:57.526Z,70364.34
2022-09-30T08:34:25.417Z,70399.91
2022-09-30T08:36:56.628Z,70413.72
2022-09-30T08:39:26.804Z,70416.38
2022-09-30T08:42:35.446Z,70406.66
2022-09-30T08:45:34.194Z,70419.25
2022-09-30T08:48:29.224Z,70423.88
2022-09-30T08:51:03.532Z,70462.06
2022-09-30T08:53:34.994Z,70482.81
2022-09-30T08:56:04.502Z,70495.59
2022-09-30T08:58:44.322Z,70544.09
2022-09-30T09:01:40.035Z,70590.91
2022-09-30T09:04:08.764Z,70616.97
2022-09-30T09:06:36.093Z,70662.91
2022-09-30T09:09:12.497Z,70692.56
2022-09-30T09:12:01.010Z,70805.38
2022-09-30T09:17:26.628Z,70815.81
2022-09-30T09:20:08.405Z,70947.38
2022-09-30T09:22:37.960Z,71091.78
2022-09-30T09:25:05.831Z,71190.41
2022-09-30T09:27:49.587Z,71171.63
2022-09-30T09:30:21.919Z,71235.50
2022-09-30T09:32:57.211Z,71496.25
2022-09-30T09:35:24.585Z,71696.25
2022-09-30T09:38:19.738Z,71818.34
2022-09-30T09:40:57.848Z,71969.94
2022-09-30T09:43:35.574Z,72055.78
2022-09-30T09:46:02.923Z,72167.78
2022-09-30T09:48:35.988Z,72204.28
2022-09-30T09:51:11.904Z,72207.78
2022-09-30T09:53:53.589Z,72234.50
2022-09-30T09:56:23.220Z,72293.16
2022-09-30T09:59:09.697Z,72350.91
2022-09-30T10:01:41.639Z,72439.97
2022-09-30T10:04:11.580Z,72415.00
2022-09-30T10:06:49.816Z,72407.81
2022-09-30T10:09:38.312Z,72386.22
2022-09-30T10:12:08.608Z,72345.66
2022-09-30T10:14:50.944Z,72410.84
2022-09-30T10:17:26.697Z,72603.06
2022-09-30T10:19:59.432Z,72705.34
2022-09-30T10:22:32.313Z,72553.81
2022-09-30T10:25:14.872Z,72683.78
2022-09-30T10:28:02.014Z,72773.69
2022-09-30T10:30:40.515Z,72668.25
2022-09-30T10:33:36.224Z,72712.81
2022-09-30T10:36:16.197Z,72532.34
2022-09-30T10:38:57.571Z,72460.53
2022-09-30T10:41:31.406Z,72573.84
2022-09-30T10:44:02.805Z,72756.47
2022-09-30T10:46:35.477Z,72785.03
2022-09-30T10:49:10.642Z,72757.81
2022-09-30T10:51:38.760Z,72577.47
2022-09-30T10:54:07.121Z,72461.66
2022-09-30T10:56:45.626Z,72570.00
2022-09-30T10:59:29.816Z,72665.91
2022-09-30T11:05:07.175Z,72652.22
2022-09-30T11:08:01.227Z,72748.88
2022-09-30T11:10:50.085Z,72574.44
2022-09-30T11:13:37.094Z,72648.38
2022-09-30T11:16:21.479Z,72920.78
2022-09-30T11:18:52.908Z,73104.00
2022-09-30T11:21:39.011Z,73087.59
2022-09-30T11:24:53.869Z,73078.69
2022-09-30T11:27:36.838Z,73016.09
2022-09-30T11:30:24.423Z,72740.84
2022-09-30T11:33:06.642Z,72691.13
2022-09-30T11:36:12.599Z,72787.84
2022-09-30T11:38:39.945Z,72906.59
2022-09-30T11:41:19.815Z,72987.41
2022-09-30T11:44:17.538Z,72930.75
2022-09-30T11:47:27.156Z,72686.31
2022-09-30T11:50:07.819Z,72510.03
2022-09-30T11:53:03.691Z,72523.25
2022-09-30T11:55:39.930Z,72506.31
2022-09-30T11:58:39.233Z,72505.94
2022-09-30T12:01:26.858Z,72619.47
2022-09-30T12:04:03.033Z,72712.66
2022-09-30T12:06:40.889Z,72651.78
2022-09-30T12:09:20.683Z,72705.94
2022-09-30T12:11:57.749Z,72657.13
2022-09-30T12:14:43.644Z,72395.94
2022-09-30T12:17:31.357Z,72262.63
2022-09-30T12:20:14.761Z,71951.56
2022-09-30T12:22:45.168Z,71890.59
2022-09-30T12:25:21.848Z,71815.56
2022-09-30T12:28:36.754Z,71754.31
2022-09-30T12:31:23.404Z,71647.38
2022-09-30T12:33:56.554Z,71546.47
2022-09-30T12:36:33.952Z,71402.28
2022-09-30T12:39:20.300Z,71396.41
2022-09-30T12:42:11.979Z,71387.28
2022-09-30T12:45:04.586Z,71356.44
2022-09-30T12:47:32.178Z,71304.28
2022-09-30T12:50:01.955Z,71247.69
2022-09-30T12:52:35.344Z,71170.59
2022-09-30T12:55:19.861Z,71056.63
2022-09-30T12:57:49.574Z,71141.41
2022-09-30T13:00:20.576Z,71170.56
2022-09-30T13:02:55.240Z,71212.81
2022-09-30T13:05:31.353Z,71254.84
2022-09-30T13:08:05.283Z,71245.69
2022-09-30T13:10:33.766Z,71259.31
2022-09-30T13:13:25.132Z,71242.56
2022-09-30T13:15:56.770Z,71279.44
2022-09-30T13:18:27.663Z,71236.31
2022-09-30T13:21:11.346Z,71233.59
2022-09-30T13:23:44.837Z,71246.28
2022-09-30T13:26:27.840Z,71138.66
2022-09-30T13:29:02.071Z,71130.16
2022-09-30T13:31:32.771Z,71180.81
2022-09-30T13:34:09.971Z,71135.16
2022-09-30T13:36:53.296Z,71128.31
2022-09-30T13:39:25.978Z,71044.91
2022-09-30T13:42:15.471Z,71027.56
2022-09-30T13:45:07.153Z,71083.53
2022-09-30T13:47:44.537Z,71120.28
2022-09-30T13:50:18.313Z,71091.69
2022-09-30T13:52:56.684Z,71108.28
2022-09-30T13:55:46.908Z,71080.59
2022-09-30T13:58:48.493Z,71059.19
2022-09-30T14:01:42.315Z,71127.47
2022-09-30T14:04:28.167Z,71073.13
2022-09-30T14:07:14.141Z,71112.31
2022-09-30T14:09:47.326Z,71084.41
2022-09-30T14:12:56.920Z,71074.13
2022-09-30T14:15:57.294Z,71030.34
2022-09-30T14:18:51.710Z,71045.22
2022-09-30T14:21:38.172Z,71047.31
2022-09-30T14:24:27.056Z,71038.97
2022-09-30T14:27:35.648Z,70999.81
2022-09-30T14:30:06.795Z,70984.66
2022-09-30T14:32:59.530Z,71002.28
2022-09-30T14:35:30.485Z,70998.44
2022-09-30T14:38:28.004Z,70965.47
2022-09-30T14:40:58.716Z,71012.66
2022-09-30T14:43:40.321Z,71028.72
2022-09-30T14:46:26.632Z,70998.19
2022-09-30T14:48:56.774Z,70972.13
2022-09-30T14:51:27.355Z,70963.91
2022-09-30T14:54:02.291Z,70985.94
2022-09-30T14:56:33.170Z,70988.97
2022-09-30T14:59:12.936Z,70930.03
2022-09-30T15:01:42.161Z,70954.69
2022-09-30T15:04:32.138Z,70932.72
2022-09-30T15:07:03.277Z,70936.41
2022-09-30T15:09:33.414Z,70906.50
2022-09-30T15:12:27.101Z,70883.66
2022-09-30T15:15:00.659Z,70905.63
2022-09-30T15:17:30.807Z,70926.13
2022-09-30T15:19:59.101Z,70896.81
2022-09-30T15:22:30.064Z,70871.94
2022-09-30T15:24:59.872Z,70906.69
2022-09-30T15:27:33.085Z,70876.19
2022-09-30T15:30:03.616Z,70888.09
2022-09-30T15:32:35.658Z,70856.94
2022-09-30T15:35:12.192Z,70862.03
2022-09-30T15:37:39.868Z,70863.22
2022-09-30T15:40:40.904Z,70840.94
2022-09-30T15:43:11.782Z,70871.75
2022-09-30T15:45:44.101Z,70877.97
2022-09-30T15:48:26.730Z,70891.31
2022-09-30T15:50:57.215Z,70845.66
2022-09-30T15:53:31.802Z,70883.94
2022-09-30T15:56:31.595Z,70843.41
2022-09-30T15:59:03.268Z,70860.63
2022-09-30T16:01:37.056Z,70842.59
2022-09-30T16:04:16.730Z,70829.56
2022-09-30T16:06:50.580Z,70810.03
2022-09-30T16:09:20.920Z,70797.34
2022-09-30T16:12:15.787Z,70809.56
2022-09-30T16:14:53.782Z,70856.41
2022-09-30T16:17:36.333Z,70792.50
2022-09-30T16:20:25.063Z,70810.31
2022-09-30T16:22:54.949Z,70777.47
2022-09-30T16:25:33.606Z,70777.84
2022-09-30T16:28:12.399Z,70767.81
2022-09-30T16:30:48.608Z,70774.38
2022-09-30T16:33:16.986Z,70741.25
2022-09-30T16:35:47.362Z,70754.31
2022-09-30T16:38:16.224Z,70757.88
2022-09-30T16:40:44.082Z,70733.66
2022-09-30T16:43:11.809Z,70735.19
2022-09-30T16:45:43.718Z,70690.63
2022-09-30T16:48:19.189Z,70710.81
2022-09-30T16:50:52.388Z,70703.84
2022-09-30T16:53:20.445Z,70668.94
2022-09-30T16:55:48.145Z,70667.28
2022-09-30T16:58:16.581Z,70649.63
2022-09-30T17:00:45.359Z,70621.66
2022-09-30T17:03:15.043Z,70592.25
2022-09-30T17:05:44.801Z,70596.75
2022-09-30T17:08:17.045Z,70638.47
2022-09-30T17:10:47.462Z,70573.22
2022-09-30T17:13:17.860Z,70570.34
2022-09-30T17:15:50.594Z,70531.34
2022-09-30T17:18:19.552Z,70537.31
2022-09-30T17:21:00.708Z,70549.41
2022-09-30T17:23:32.259Z,70547.38
2022-09-30T17:25:59.683Z,70549.22
2022-09-30T17:28:27.093Z,70534.78
2022-09-30T17:30:54.739Z,70486.78
2022-09-30T17:33:22.183Z,70519.28
2022-09-30T17:36:03.537Z,70485.13
2022-09-30T17:38:31.161Z,70442.63
2022-09-30T17:41:18.134Z,70416.19
2022-09-30T17:43:45.880Z,70481.16
2022-09-30T17:46:18.523Z,70473.84
2022-09-30T17:48:46.901Z,70442.34
2022-09-30T17:51:16.365Z,70492.50
2022-09-30T17:53:44.336Z,70453.59
2022-09-30T17:56:20.637Z,70458.34
2022-09-30T17:58:50.613Z,70399.41
2022-09-30T18:01:20.430Z,70409.75
2022-09-30T18:03:48.018Z,70403.59
2022-09-30T18:06:15.425Z,70396.25
2022-09-30T18:08:43.552Z,70373.00
2022-09-30T18:11:22.798Z,70400.19
2022-09-30T18:13:58.047Z,70381.31
2022-09-30T18:16:30.371Z,70416.72
2022-09-30T18:19:00.401Z,70373.09
2022-09-30T18:21:28.549Z,70386.94
2022-09-30T18:23:57.433Z,70350.09
2022-09-30T18:26:26.663Z,70374.94
2022-09-30T18:28:54.449Z,70376.16
2022-09-30T18:31:30.585Z,70386.75
2022-09-30T18:33:58.879Z,70402.13
2022-09-30T18:36:28.381Z,70323.16
2022-09-30T18:38:59.777Z,70329.31
2022-09-30T18:41:28.244Z,70379.72
2022-09-30T18:43:59.494Z,70339.41
2022-09-30T18:46:28.758Z,70344.41
2022-09-30T18:48:56.198Z,70345.59
2022-09-30T18:51:25.008Z,70328.00
2022-09-30T18:53:57.834Z,70327.44
2022-09-30T18:56:34.417Z,70321.88
2022-09-30T19:01:39.403Z,70298.34
2022-09-30T19:04:07.209Z,70332.22
2022-09-30T19:06:34.861Z,70326.34
2022-09-30T19:09:03.128Z,70266.88
2022-09-30T19:11:31.445Z,70279.53
2022-09-30T19:14:01.359Z,70295.22
2022-09-30T19:16:35.346Z,70283.53
2022-09-30T19:19:08.251Z,70272.41
2022-09-30T19:21:36.919Z,70290.19
2022-09-30T19:24:06.311Z,70251.03
2022-09-30T19:26:36.687Z,70267.81
2022-09-30T19:29:09.672Z,70267.22
2022-09-30T19:31:37.900Z,70229.00
2022-09-30T19:34:06.214Z,70231.47
2022-09-30T19:36:45.058Z,70186.19
2022-09-30T19:39:16.675Z,70160.91
2022-09-30T19:41:46.242Z,70189.78
2022-09-30T19:44:18.595Z,70176.31
2022-09-30T19:46:49.349Z,70186.94
2022-09-30T19:49:17.792Z,70189.16
2022-09-30T19:51:45.285Z,70162.91
2022-09-30T19:54:12.728Z,70171.16
2022-09-30T19:56:40.091Z,70147.38
2022-09-30T19:59:07.479Z,70176.53
2022-09-30T20:01:35.614Z,70129.53
2022-09-30T20:04:05.279Z,70117.78
2022-09-30T20:06:34.727Z,70141.06
2022-09-30T20:09:04.339Z,70096.41
2022-09-30T20:11:34.225Z,70143.72
2022-09-30T20:14:43.053Z,70108.13
2022-09-30T20:17:12.221Z,70107.91
2022-09-30T20:19:39.682Z,70097.41
2022-09-30T20:22:07.152Z,70109.44
2022-09-30T20:24:34.723Z,70080.69
2022-09-30T20:27:02.141Z,70068.06
2022-09-30T20:29:29.597Z,70077.88
2022-09-30T20:31:57.215Z,70077.56
2022-09-30T20:34:24.718Z,70059.41
2022-09-30T20:36:52.137Z,70062.94
2022-09-30T20:39:19.481Z,70056.53
2022-09-30T20:41:47.546Z,70046.25
2022-09-30T20:44:16.538Z,70074.19
2022-09-30T20:46:44.471Z,70041.34
2022-09-30T20:49:12.471Z,70026.34
2022-09-30T20:51:40.431Z,70026.72
2022-09-30T20:54:09.713Z,70035.50
2022-09-30T20:57:02.868Z,70008.22
2022-09-30T20:59:25.370Z,69990.69
2022-09-30T21:01:52.922Z,70012.16
2022-09-30T21:04:21.252Z,69983.38
2022-09-30T21:06:48.584Z,70007.44
2022-09-30T21:09:16.006Z,69970.47
2022-09-30T21:11:43.390Z,69994.56
2022-09-30T21:14:11.165Z,69965.19
2022-09-30T21:16:38.663Z,70010.16
2022-09-30T21:19:06.310Z,69959.09
2022-09-30T21:21:34.180Z,69991.75
2022-09-30T21:24:01.909Z,69957.69
2022-09-30T21:26:29.954Z,69962.75
2022-09-30T21:28:57.276Z,69948.72
2022-09-30T21:31:27.366Z,69926.72
2022-09-30T21:34:00.886Z,69990.38
2022-09-30T21:36:28.907Z,69951.13
2022-09-30T21:39:04.089Z,69965.19
2022-09-30T21:41:33.299Z,69903.97
2022-09-30T21:44:03.488Z,69935.03
2022-09-30T21:46:31.078Z,69908.09
2022-09-30T21:49:07.649Z,69931.00
2022-09-30T21:51:35.576Z,69945.94
2022-09-30T21:54:03.506Z,69898.75
2022-09-30T21:56:30.956Z,69918.19
2022-09-30T21:58:58.514Z,69907.06
2022-09-30T22:01:26.011Z,69893.63
2022-09-30T22:03:53.399Z,69889.22
2022-09-30T22:06:20.793Z,69906.50
2022-09-30T22:08:48.294Z,69884.78
2022-09-30T22:11:25.283Z,69886.53
2022-09-30T22:13:55.646Z,69902.97
2022-09-30T22:16:27.021Z,69889.22
2022-09-30T22:19:00.106Z,69910.59
2022-09-30T22:21:31.792Z,69877.44
2022-09-30T22:24:01.185Z,69901.25
2022-09-30T22:26:29.718Z,69879.03
2022-09-30T22:29:02.677Z,69863.19
2022-09-30T22:31:32.722Z,69900.75
2022-09-30T22:34:22.308Z,69882.56
2022-09-30T22:37:08.577Z,69868.56
2022-09-30T22:39:36.114Z,69879.13
2022-09-30T22:42:04.201Z,69856.88
2022-09-30T22:44:37.065Z,69844.59
2022-09-30T22:47:07.782Z,69826.19
2022-09-30T22:49:35.226Z,69816.31
2022-09-30T22:52:03.745Z,69825.38
2022-09-30T22:54:32.222Z,69845.63
2022-09-30T22:56:59.625Z,69836.88
2022-09-30T22:59:28.530Z,69834.25
2022-09-30T23:01:57.381Z,69804.66
2022-09-30T23:04:26.934Z,69805.25
2022-09-30T23:06:55.481Z,69801.44
2022-09-30T23:09:23.487Z,69823.44
2022-09-30T23:11:54.128Z,69791.50
2022-09-30T23:14:22.601Z,69787.13
2022-09-30T23:16:50.515Z,69808.44
2022-09-30T23:19:18.452Z,69806.16
2022-09-30T23:21:45.745Z,69791.81
2022-09-30T23:24:13.388Z,69797.97
2022-09-30T23:26:40.739Z,69773.13
2022-09-30T23:29:11.570Z,69776.38
2022-09-30T23:31:39.708Z,69742.47
2022-09-30T23:34:08.045Z,69745.75
2022-09-30T23:36:37.148Z,69762.44
2022-09-30T23:39:20.121Z,69752.72
2022-09-30T23:41:49.027Z,69758.94
2022-09-30T23:44:18.816Z,69762.47
2022-09-30T23:47:06.318Z,69758.66
2022-09-30T23:49:35.648Z,69749.63
2022-09-30T23:52:12.439Z,69746.44
2022-09-30T23:54:41.444Z,69708.44
2022-09-30T23:57:10.542Z,69683.44
2022-09-30T23:59:38.731Z,69712.25
